Time;durP1;ratioP1;P1;durP2;ratioP2;P2;SDS_P1;SDS_P2;PMS_P1;PMS_P2;Temp;Humidity;BMP_temperature;BMP_pressure;BME280_temperature;BME280_humidity;BME280_pressure;Samples;Min_cycle;Max_cycle;Signal;HPM_P1;HPM_P2
2022/04/17 00:01:09;;;;;;;3.50;3.20;;;9.60;30.20;;;;;;20664;6760;123121;-75
2022/04/17 00:03:45;;;;;;;3.40;3.20;;;9.50;31.10;;;;;;20606;6761;283226;-74
2022/04/17 00:06:21;;;;;;;3.85;3.55;;;9.50;31.10;;;;;;20551;6775;277763;-74
2022/04/17 00:08:57;;;;;;;3.23;3.07;;;10.20;29.50;;;;;;20583;6761;307234;-74
2022/04/17 00:11:32;;;;;;;3.40;3.20;;;10.10;29.40;;;;;;20645;6775;118087;-74
2022/04/17 00:14:10;;;;;;;3.33;3.20;;;10.00;29.40;;;;;;20818;6761;117185;-74
2022/04/17 00:16:44;;;;;;;3.50;3.30;;;9.70;30.40;;;;;;20591;6761;336190;-74
2022/04/17 00:19:20;;;;;;;3.13;2.93;;;9.70;30.40;;;;;;20774;6774;117192;-74
2022/04/17 00:21:55;;;;;;;3.62;3.42;;;9.60;30.30;;;;;;20438;6759;308786;-75
2022/04/17 00:24:31;;;;;;;3.80;3.60;;;9.70;30.80;;;;;;20601;6759;310859;-75
2022/04/17 00:27:09;;;;;;;3.90;3.60;;;10.10;29.10;;;;;;20538;6775;310365;-74
2022/04/17 00:29:45;;;;;;;3.60;3.40;;;10.10;29.20;;;;;;20563;6771;277648;-74
2022/04/17 00:32:20;;;;;;;3.77;3.47;;;10.30;29.20;;;;;;20615;6756;276823;-75
2022/04/17 00:35:01;;;;;;;3.03;2.93;;;10.40;29.00;;;;;;20762;6771;126817;-73
2022/04/17 00:37:37;;;;;;;3.87;3.60;;;10.10;29.60;;;;;;20722;6790;117804;-75
2022/04/17 00:40:14;;;;;;;3.87;3.57;;;9.60;30.00;;;;;;20460;6794;315767;-74
2022/04/17 00:42:50;;;;;;;3.43;3.23;;;9.70;30.90;;;;;;20795;6776;117186;-73
2022/04/17 00:45:25;;;;;;;3.40;3.20;;;9.50;30.80;;;;;;20617;6746;280611;-74
2022/04/17 00:48:01;;;;;;;3.63;3.33;;;9.60;31.00;;;;;;20863;6746;116871;-74
2022/04/17 00:50:39;;;;;;;4.27;3.40;;;9.40;30.90;;;;;;20743;6761;117068;-73
2022/04/17 00:53:12;;;;;;;3.47;3.20;;;9.20;31.50;;;;;;20481;6790;310798;-74
2022/04/17 00:55:47;;;;;;;3.67;3.47;;;9.30;31.70;;;;;;20818;6774;116878;-74
2022/04/17 00:58:24;;;;;;;3.50;3.30;;;9.20;31.40;;;;;;20802;6761;118461;-75
2022/04/17 01:01:00;;;;;;;3.63;3.43;;;9.00;31.60;;;;;;20466;6776;308978;-74
2022/04/17 01:03:35;;;;;;;3.60;3.40;;;9.20;31.60;;;;;;20713;6847;118331;-75
2022/04/17 01:06:11;;;;;;;3.67;3.37;;;9.10;31.30;;;;;;20552;6776;341982;-74
2022/04/17 01:08:46;;;;;;;3.75;3.55;;;9.20;32.10;;;;;;20569;6779;277148;-74
2022/04/17 01:11:22;;;;;;;3.97;3.40;;;9.50;30.90;;;;;;20607;6790;118405;-73
2022/04/17 01:13:57;;;;;;;3.73;3.50;;;9.40;30.80;;;;;;20786;6767;117337;-74
2022/04/17 01:16:33;;;;;;;3.63;3.43;;;9.00;31.00;;;;;;20791;6767;121129;-73
2022/04/17 01:19:12;;;;;;;3.67;3.47;;;8.50;31.60;;;;;;20782;6764;118968;-73
2022/04/17 01:21:49;;;;;;;3.90;3.60;;;8.50;31.60;;;;;;20434;6764;308691;-75
2022/04/17 01:27:21;;;;;;;3.90;3.70;;;8.70;32.20;;;;;;20848;6749;117477;-73
2022/04/17 01:29:58;;;;;;;3.57;3.37;;;8.20;32.50;;;;;;20772;6764;116869;-73
2022/04/17 01:32:33;;;;;;;3.83;3.63;;;8.20;32.50;;;;;;20758;6779;118660;-73
2022/04/17 01:35:09;;;;;;;3.87;3.67;;;8.10;32.70;;;;;;20775;6766;118099;-73
2022/04/17 01:37:48;;;;;;;3.90;3.62;;;8.00;32.80;;;;;;20553;6779;336481;-74
2022/04/17 01:40:23;;;;;;;3.83;3.53;;;8.30;32.90;;;;;;20725;6766;117486;-74
2022/04/17 01:42:59;;;;;;;4.07;3.87;;;8.40;32.60;;;;;;20519;6766;332925;-73
2022/04/17 01:45:34;;;;;;;3.60;3.33;;;8.50;32.50;;;;;;20751;6776;117476;-73
2022/04/17 01:48:10;;;;;;;3.93;3.43;;;8.50;32.20;;;;;;20756;6776;117405;-73
2022/04/17 01:50:46;;;;;;;3.87;3.67;;;8.30;32.30;;;;;;20660;6776;117595;-73
2022/04/17 01:53:21;;;;;;;4.00;3.80;;;8.10;32.60;;;;;;20592;6762;337102;-74
2022/04/17 01:55:57;;;;;;;4.07;3.87;;;8.30;32.80;;;;;;20741;6784;123709;-73
2022/04/17 01:58:32;;;;;;;4.27;3.97;;;8.30;33.00;;;;;;20765;6769;116995;-73
2022/04/17 02:01:08;;;;;;;4.10;3.80;;;8.20;33.20;;;;;;20660;6776;121879;-74
2022/04/17 02:03:43;;;;;;;4.00;3.80;;;8.00;33.10;;;;;;20573;6776;283268;-73
2022/04/17 02:06:19;;;;;;;4.30;4.00;;;8.30;33.40;;;;;;20518;6791;335567;-73
2022/04/17 02:08:54;;;;;;;4.17;3.87;;;8.70;33.10;;;;;;20795;6759;117459;-75
2022/04/17 02:11:30;;;;;;;3.80;3.60;;;8.60;32.60;;;;;;20666;6774;117810;-74
2022/04/17 02:14:06;;;;;;;4.43;4.03;;;8.30;32.70;;;;;;20806;6761;117040;-73
2022/04/17 02:16:42;;;;;;;3.95;3.65;;;8.40;33.00;;;;;;20596;6761;336763;-73
2022/04/17 02:19:24;;;;;;;4.30;4.00;;;8.70;32.90;;;;;;20604;6761;276867;-74
2022/04/17 02:21:54;;;;;;;4.03;3.77;;;8.70;32.90;;;;;;20431;6760;343481;-73
2022/04/17 02:24:30;;;;;;;4.50;4.20;;;9.00;32.30;;;;;;20564;6766;307051;-73
2022/04/17 02:27:08;;;;;;;4.03;3.72;;;9.30;31.80;;;;;;20530;6769;308365;-73
2022/04/17 02:29:41;;;;;;;4.17;3.97;;;9.40;31.40;;;;;;20808;6761;116887;-74
2022/04/17 02:32:18;;;;;;;3.90;3.60;;;9.10;31.30;;;;;;20595;6761;341352;-73
2022/04/17 02:34:53;;;;;;;3.90;3.60;;;9.00;31.40;;;;;;20793;6776;118468;-74
2022/04/17 02:37:29;;;;;;;3.90;3.70;;;8.80;31.40;;;;;;20766;6775;117053;-75
2022/04/17 02:40:05;;;;;;;3.90;3.60;;;8.50;32.00;;;;;;20744;6775;116872;-73
2022/04/17 02:42:42;;;;;;;4.17;3.87;;;8.40;32.80;;;;;;20560;6775;307764;-73
2022/04/17 02:45:17;;;;;;;4.47;4.07;;;8.40;32.80;;;;;;20796;6771;123448;-73
2022/04/17 02:47:52;;;;;;;3.97;3.77;;;8.40;32.50;;;;;;20555;6775;307254;-73
2022/04/17 02:50:28;;;;;;;4.27;4.00;;;8.50;32.50;;;;;;20735;6759;123339;-74
2022/04/17 02:53:04;;;;;;;3.87;3.62;;;8.60;32.60;;;;;;20501;6789;341948;-73
2022/04/17 02:55:41;;;;;;;3.73;3.53;;;8.50;33.00;;;;;;20734;6777;117030;-73
2022/04/17 02:58:16;;;;;;;4.12;3.85;;;8.50;32.50;;;;;;20523;6780;291183;-73
2022/04/17 03:06:43;;;;;;;3.90;3.60;;;9.10;32.40;;;;;;20571;6763;308082;-73
2022/04/17 03:09:19;;;;;;;3.95;3.75;;;9.20;31.60;;;;;;20593;6777;305478;-74
2022/04/17 03:11:55;;;;;;;3.70;3.50;;;9.30;31.60;;;;;;20593;6777;123344;-75
2022/04/17 03:14:30;;;;;;;3.87;3.67;;;9.00;31.70;;;;;;20772;6763;117003;-74
2022/04/17 03:17:06;;;;;;;3.80;3.60;;;8.50;32.40;;;;;;20540;6774;342838;-75
2022/04/17 03:19:41;;;;;;;4.07;3.83;;;8.50;33.20;;;;;;20808;6761;117298;-75
2022/04/17 03:22:17;;;;;;;4.30;3.90;;;8.40;33.10;;;;;;20811;6763;117434;-75
2022/04/17 03:24:52;;;;;;;4.20;3.90;;;8.10;33.50;;;;;;20532;6777;288323;-74
2022/04/17 03:27:28;;;;;;;3.97;3.78;;;8.20;34.00;;;;;;20561;6776;326669;-74
2022/04/17 03:30:04;;;;;;;4.03;3.83;;;8.50;33.60;;;;;;20521;6778;340963;-75
2022/04/17 03:32:41;;;;;;;3.63;3.43;;;8.70;32.90;;;;;;20831;6757;116890;-73
2022/04/17 03:35:17;;;;;;;4.13;3.90;;;8.50;32.90;;;;;;20609;6761;306074;-74
2022/04/17 03:37:55;;;;;;;4.10;3.80;;;8.50;33.20;;;;;;20565;6774;278532;-74
2022/04/17 03:40:28;;;;;;;3.70;3.50;;;8.70;33.10;;;;;;20704;6774;117003;-74
2022/04/17 03:43:03;;;;;;;4.23;3.93;;;8.50;33.20;;;;;;20799;6759;116878;-74
2022/04/17 03:45:39;;;;;;;4.40;4.10;;;8.10;33.70;;;;;;20514;6788;309029;-75
2022/04/17 03:48:16;;;;;;;4.70;4.30;;;8.20;34.30;;;;;;20559;6774;308251;-74
2022/04/17 03:50:50;;;;;;;4.70;4.40;;;8.40;34.30;;;;;;20489;6761;309550;-73
2022/04/17 03:53:26;;;;;;;4.33;4.10;;;8.60;34.00;;;;;;20814;6761;120863;-74
2022/04/17 03:56:01;;;;;;;4.60;4.30;;;8.30;34.10;;;;;;20782;6763;117966;-73
2022/04/17 03:58:37;;;;;;;4.40;4.20;;;7.90;34.70;;;;;;20789;6771;117037;-74
2022/04/17 04:01:12;;;;;;;4.90;4.60;;;7.50;35.00;;;;;;20391;6789;314203;-73
2022/04/17 04:03:48;;;;;;;4.87;4.50;;;7.60;35.60;;;;;;20818;6759;116912;-73
2022/04/17 04:06:24;;;;;;;5.00;4.70;;;7.60;36.00;;;;;;20575;6759;307091;-73
2022/04/17 04:09:00;;;;;;;4.95;4.65;;;7.60;35.80;;;;;;20496;6789;307853;-74
2022/04/17 04:11:35;;;;;;;4.53;4.32;;;7.90;35.60;;;;;;20379;6789;310780;-73
2022/04/17 04:14:11;;;;;;;5.20;4.90;;;8.10;35.50;;;;;;20786;6761;117732;-74
2022/04/17 04:16:48;;;;;;;4.93;4.62;;;7.80;35.40;;;;;;20541;6774;307351;-73
2022/04/17 04:19:24;;;;;;;4.87;4.57;;;7.90;35.80;;;;;;20547;6776;304544;-74
2022/04/17 04:22:00;;;;;;;4.80;4.50;;;8.10;35.10;;;;;;20512;6789;117939;-75
2022/04/17 04:24:35;;;;;;;4.97;4.60;;;7.90;35.20;;;;;;20770;6774;116876;-74
2022/04/17 04:30:07;;;;;;;6.07;4.40;;;7.30;35.90;;;;;;20791;6648;117062;-78
2022/04/17 04:32:52;;;;;;;4.70;4.40;;;7.00;36.20;;;;;;20747;6774;117555;-75
2022/04/17 04:35:29;;;;;;;4.40;4.13;;;6.90;36.60;;;;;;20781;6774;117719;-77
2022/04/17 04:38:05;;;;;;;5.30;4.83;;;6.80;36.90;;;;;;20853;6759;121598;-76
2022/04/17 04:40:38;;;;;;;4.47;4.17;;;6.70;37.10;;;;;;20748;6759;118370;-76
2022/04/17 04:43:14;;;;;;;5.30;5.00;;;6.60;37.20;;;;;;20629;6744;279070;-75
2022/04/17 04:46:08;;;;;;;5.30;4.95;;;6.90;37.50;;;;;;20609;6759;307649;-75
2022/04/17 04:51:38;;;;;;;5.07;4.77;;;7.40;36.60;;;;;;20458;6761;316514;-75
2022/04/17 04:54:14;;;;;;;5.00;4.70;;;7.60;36.50;;;;;;20601;6759;325237;-76
2022/04/17 04:56:50;;;;;;;5.00;4.50;;;7.90;35.50;;;;;;20805;6759;117106;-75
2022/04/17 04:59:26;;;;;;;4.70;4.40;;;7.90;35.60;;;;;;20614;6759;313653;-76
2022/04/17 05:02:02;;;;;;;5.20;4.80;;;7.90;35.50;;;;;;20603;6774;120069;-77
2022/04/17 05:04:38;;;;;;;5.60;4.77;;;7.40;35.80;;;;;;20763;6774;118584;-76
2022/04/17 05:07:13;;;;;;;4.63;4.33;;;7.40;35.80;;;;;;20824;6759;120955;-76
2022/04/17 05:09:49;;;;;;;4.63;4.33;;;7.20;36.20;;;;;;20757;6774;117976;-75
2022/04/17 05:12:25;;;;;;;4.50;4.30;;;6.90;36.70;;;;;;20855;6748;117454;-75
2022/04/17 05:15:01;;;;;;;5.28;4.87;;;6.80;36.60;;;;;;20637;6744;276976;-77
2022/04/17 05:17:36;;;;;;;5.10;4.70;;;7.10;36.80;;;;;;20870;6744;116835;-76
2022/04/17 05:20:14;;;;;;;4.60;4.40;;;7.20;36.50;;;;;;20829;6744;116915;-75
2022/04/17 05:22:56;;;;;;;4.43;4.23;;;7.00;36.70;;;;;;20573;6759;306883;-74
2022/04/17 05:25:28;;;;;;;4.87;4.57;;;7.70;36.40;;;;;;20644;6759;281948;-74
2022/04/17 05:28:05;;;;;;;4.90;4.60;;;7.70;36.40;;;;;;20561;6774;278194;-76
2022/04/17 05:30:41;;;;;;;4.60;4.30;;;8.10;35.80;;;;;;20676;6792;117654;-75
2022/04/17 05:33:18;;;;;;;4.50;4.25;;;8.00;35.70;;;;;;20581;6778;340985;-71
2022/04/17 05:35:53;;;;;;;4.33;4.10;;;8.00;35.70;;;;;;20816;6763;116948;-74
2022/04/17 05:38:28;;;;;;;4.60;4.30;;;7.90;35.60;;;;;;20551;6777;281694;-76
2022/04/17 05:41:04;;;;;;;4.60;4.30;;;8.00;35.60;;;;;;20476;6763;338802;-73
2022/04/17 05:43:40;;;;;;;4.55;4.25;;;8.30;34.90;;;;;;20605;6763;277309;-73
2022/04/17 05:46:15;;;;;;;4.30;4.10;;;8.60;34.40;;;;;;20864;6748;117025;-74
2022/04/17 05:48:51;;;;;;;4.13;3.83;;;8.40;34.60;;;;;;20751;6777;121188;-74
2022/04/17 05:51:26;;;;;;;4.33;4.03;;;8.00;34.80;;;;;;20664;6764;117499;-74
2022/04/17 05:54:05;;;;;;;4.30;4.00;;;7.70;35.10;;;;;;20760;6764;121146;-74
2022/04/17 05:56:41;;;;;;;4.00;3.80;;;7.50;35.40;;;;;;20780;6762;117329;-71
2022/04/17 05:59:16;;;;;;;4.60;4.20;;;7.40;35.80;;;;;;20753;6777;117739;-71
2022/04/17 06:01:52;;;;;;;4.60;4.20;;;7.30;35.90;;;;;;20526;6792;117882;-73
2022/04/17 06:04:28;;;;;;;4.47;4.18;;;7.60;36.20;;;;;;20518;6777;338601;-71
2022/04/17 06:07:04;;;;;;;4.13;3.93;;;7.60;36.10;;;;;;20536;6770;307052;-69
2022/04/17 06:10:03;;;;;;;4.30;4.00;;;8.10;35.70;;;;;;20810;6761;117103;-69
2022/04/17 06:12:38;;;;;;;4.30;4.00;;;8.10;35.40;;;;;;20761;6774;116962;-71
2022/04/17 06:15:14;;;;;;;4.47;4.18;;;7.90;35.60;;;;;;20573;6759;306411;-76
2022/04/17 06:17:50;;;;;;;4.37;3.97;;;8.20;35.30;;;;;;20772;6777;117889;-73
2022/04/17 06:20:25;;;;;;;4.30;3.90;;;8.20;35.10;;;;;;20647;6789;117093;-72
2022/04/17 06:23:01;;;;;;;4.17;3.97;;;8.00;35.20;;;;;;20601;6755;282174;-72
2022/04/17 06:25:37;;;;;;;4.20;3.90;;;8.30;35.30;;;;;;20610;6755;312353;-75
2022/04/17 06:28:12;;;;;;;4.37;3.97;;;8.70;35.00;;;;;;20830;6755;116913;-72
2022/04/17 06:30:51;;;;;;;4.20;3.90;;;8.80;35.00;;;;;;20678;6770;117787;-72
2022/04/17 06:33:27;;;;;;;4.10;3.90;;;9.00;35.40;;;;;;20835;6755;123720;-73
2022/04/17 06:36:03;;;;;;;4.05;3.85;;;8.90;35.30;;;;;;20629;6755;276549;-77
2022/04/17 06:38:38;;;;;;;4.10;3.80;;;9.30;34.00;;;;;;20836;6755;117841;-73
2022/04/17 06:41:14;;;;;;;3.60;3.40;;;9.60;33.90;;;;;;20664;6770;117467;-73
2022/04/17 06:43:50;;;;;;;3.80;3.60;;;9.70;34.00;;;;;;20784;6759;117249;-71
2022/04/17 06:46:25;;;;;;;3.63;3.43;;;9.70;33.90;;;;;;20756;6776;116932;-72
2022/04/17 06:49:00;;;;;;;4.00;3.70;;;9.70;34.00;;;;;;20528;6776;336571;-72
2022/04/17 06:51:36;;;;;;;3.23;2.93;;;10.10;31.70;;;;;;20620;6777;117502;-73
2022/04/17 06:54:12;;;;;;;3.27;3.00;;;10.30;31.40;;;;;;20813;6776;117132;-72
2022/04/17 06:56:47;;;;;;;3.33;3.12;;;10.30;31.40;;;;;;20584;6776;335999;-73
2022/04/17 06:59:24;;;;;;;3.93;3.67;;;10.80;31.10;;;;;;20714;6805;117859;-74
2022/04/17 07:01:59;;;;;;;3.40;3.20;;;10.80;30.60;;;;;;20392;6789;310952;-76
2022/04/17 07:04:35;;;;;;;3.47;3.28;;;11.20;29.80;;;;;;20565;6771;306112;-72
2022/04/17 07:07:10;;;;;;;3.33;3.13;;;11.70;28.90;;;;;;20679;6803;117707;-73
2022/04/17 07:09:46;;;;;;;3.03;2.83;;;11.90;29.20;;;;;;20793;6769;116997;-72
2022/04/17 07:12:22;;;;;;;3.30;3.10;;;12.00;28.90;;;;;;20476;6799;337458;-71
2022/04/17 07:15:01;;;;;;;3.30;3.10;;;12.00;28.80;;;;;;20546;6770;295434;-71
2022/04/17 07:17:36;;;;;;;3.03;2.93;;;12.50;28.20;;;;;;20805;6761;117636;-72
2022/04/17 07:20:12;;;;;;;3.27;3.07;;;12.60;28.40;;;;;;20720;6777;117101;-72
2022/04/17 07:22:47;;;;;;;2.97;2.87;;;12.40;28.70;;;;;;20704;6755;123924;-72
2022/04/17 07:25:23;;;;;;;3.57;2.90;;;12.40;28.80;;;;;;20810;6761;117914;-73
2022/04/17 07:27:59;;;;;;;3.40;3.00;;;12.30;29.20;;;;;;20811;6761;118443;-73
2022/04/17 07:30:35;;;;;;;3.23;2.90;;;12.30;29.20;;;;;;20721;6761;117319;-73
2022/04/17 07:33:10;;;;;;;2.80;2.70;;;12.40;29.50;;;;;;20796;6761;117499;-72
2022/04/17 07:35:46;;;;;;;22.10;19.70;;;12.50;29.30;;;;;;20817;6761;117612;-72
2022/04/17 07:38:22;;;;;;;3.33;3.12;;;12.60;29.40;;;;;;20584;6761;334258;-72
2022/04/17 07:40:57;;;;;;;3.30;3.10;;;13.20;31.40;;;;;;20623;6776;118056;-73
2022/04/17 07:43:33;;;;;;;3.03;2.83;;;13.60;30.70;;;;;;20760;6779;117338;-74
2022/04/17 07:46:08;;;;;;;2.90;2.70;;;13.70;30.00;;;;;;20756;6776;117239;-73
2022/04/17 07:48:44;;;;;;;2.80;2.70;;;13.90;29.90;;;;;;20739;6777;117260;-73
2022/04/17 07:51:20;;;;;;;3.53;2.77;;;13.90;29.60;;;;;;20606;6791;117969;-73
2022/04/17 07:53:55;;;;;;;3.30;3.10;;;14.10;29.70;;;;;;20535;6774;311368;-73
2022/04/17 07:56:36;;;;;;;2.57;2.47;;;14.50;27.30;;;;;;20735;6774;117179;-72
2022/04/17 07:59:06;;;;;;;2.70;2.60;;;14.80;27.70;;;;;;20753;6774;118143;-73
2022/04/17 08:01:45;;;;;;;2.80;2.60;;;14.70;27.80;;;;;;20442;6759;284075;-73
2022/04/17 08:04:18;;;;;;;2.70;2.50;;;15.60;27.80;;;;;;20579;6774;282345;-72
2022/04/17 08:06:54;;;;;;;2.80;2.60;;;15.60;27.10;;;;;;20577;6770;313025;-73
2022/04/17 08:09:29;;;;;;;2.67;2.57;;;16.10;25.80;;;;;;20519;6759;306911;-72
2022/04/17 08:12:06;;;;;;;2.60;2.50;;;16.60;25.80;;;;;;20390;6834;309314;-73
2022/04/17 08:14:41;;;;;;;2.50;2.40;;;16.60;25.80;;;;;;20561;6759;308078;-74
2022/04/17 08:17:18;;;;;;;2.60;2.50;;;16.90;25.50;;;;;;20602;6759;277799;-75
2022/04/17 08:19:53;;;;;;;3.00;2.53;;;17.20;25.50;;;;;;20793;6777;117468;-74
2022/04/17 08:22:28;;;;;;;2.00;1.90;;;17.10;25.50;;;;;;20753;6792;117237;-73
2022/04/17 08:25:05;;;;;;;2.60;2.40;;;16.90;25.70;;;;;;20840;6747;117539;-72
2022/04/17 08:27:47;;;;;;;2.20;2.05;;;16.80;25.90;;;;;;20532;6777;338104;-74
2022/04/17 08:30:22;;;;;;;2.40;2.30;;;17.00;24.80;;;;;;20722;6777;117196;-74
2022/04/17 08:32:58;;;;;;;2.30;2.10;;;17.00;25.40;;;;;;20793;6760;120635;-74
2022/04/17 08:35:34;;;;;;;2.10;1.97;;;16.90;25.50;;;;;;20773;6774;117283;-73
2022/04/17 08:38:10;;;;;;;2.12;2.00;;;17.00;23.00;;;;;;20539;6774;308216;-73
2022/04/17 08:40:49;;;;;;;2.23;2.03;;;17.00;22.90;;;;;;20699;6762;117544;-73
2022/04/17 08:43:22;;;;;;;1.93;1.73;;;17.00;23.10;;;;;;20800;6762;117237;-73
2022/04/17 08:45:57;;;;;;;2.00;1.90;;;16.80;23.00;;;;;;20548;6775;337895;-74
2022/04/17 08:48:33;;;;;;;2.00;1.90;;;17.00;23.30;;;;;;20817;6759;117498;-75
2022/04/17 08:51:08;;;;;;;1.90;1.80;;;17.00;23.40;;;;;;20657;6770;119345;-74
2022/04/17 08:53:43;;;;;;;2.10;2.00;;;16.90;23.90;;;;;;20763;6774;117150;-73
2022/04/17 08:56:20;;;;;;;1.93;1.83;;;16.80;23.50;;;;;;20771;6774;117167;-73
2022/04/17 08:58:56;;;;;;;1.77;1.67;;;16.60;23.60;;;;;;20762;6774;118717;-73
2022/04/17 09:01:32;;;;;;;2.03;1.93;;;16.50;23.90;;;;;;20678;6774;117894;-73
2022/04/17 09:04:06;;;;;;;1.80;1.70;;;16.50;23.90;;;;;;20843;6755;117999;-74
2022/04/17 09:06:42;;;;;;;2.03;1.93;;;16.50;23.80;;;;;;20659;6744;294592;-75
2022/04/17 09:09:18;;;;;;;1.90;1.80;;;17.00;21.90;;;;;;20596;6762;307754;-73
2022/04/17 09:11:57;;;;;;;2.07;1.97;;;17.00;21.80;;;;;;20627;6774;117858;-74
2022/04/17 09:14:39;;;;;;;2.10;2.00;;;17.00;22.30;;;;;;20777;6774;117312;-78
2022/04/17 09:17:15;;;;;;;1.50;1.50;;;17.00;22.90;;;;;;20794;6764;121313;-77
2022/04/17 09:19:50;;;;;;;2.20;2.10;;;16.90;23.30;;;;;;20813;6756;118029;-78
2022/04/17 09:22:26;;;;;;;2.28;2.17;;;16.90;23.30;;;;;;20607;6766;302662;-77
2022/04/17 09:25:01;;;;;;;1.93;1.70;;;17.20;22.90;;;;;;20508;6822;298727;-75
2022/04/17 09:27:41;;;;;;;2.00;1.90;;;17.60;22.60;;;;;;20603;6765;281913;-78
2022/04/17 09:30:29;;;;;;;1.50;1.40;;;17.90;21.70;;;;;;20808;6750;114160;-77
2022/04/17 09:33:12;;;;;;;4.63;1.73;;;18.00;22.20;;;;;;20531;6777;295586;-76
2022/04/17 09:35:53;;;;;;;1.90;1.80;;;18.20;22.60;;;;;;20584;6771;276737;-77
2022/04/17 09:38:32;;;;;;;1.87;1.77;;;18.50;21.80;;;;;;20580;6770;307284;-76
2022/04/17 09:41:09;;;;;;;3.37;2.10;;;18.80;20.80;;;;;;20484;6771;309173;-73
2022/04/17 09:43:43;;;;;;;1.83;1.73;;;18.90;21.70;;;;;;20617;6756;307070;-76
2022/04/17 09:46:19;;;;;;;2.13;1.67;;;19.00;21.90;;;;;;20785;6771;117429;-73
2022/04/17 09:48:54;;;;;;;1.30;1.23;;;18.80;21.40;;;;;;20762;6771;117074;-75
2022/04/17 09:51:32;;;;;;;1.85;1.75;;;18.60;22.50;;;;;;20450;6762;308217;-76
2022/04/17 09:54:08;;;;;;;1.60;1.50;;;18.50;21.90;;;;;;20774;6774;117646;-73
2022/04/17 09:56:46;;;;;;;1.83;1.73;;;18.60;22.10;;;;;;20774;6774;117112;-77
2022/04/17 09:59:22;;;;;;;1.77;1.67;;;18.50;22.10;;;;;;20766;6776;122246;-78
2022/04/17 10:01:59;;;;;;;1.30;1.30;;;18.30;21.60;;;;;;20608;6774;117518;-78
2022/04/17 10:04:34;;;;;;;1.67;1.57;;;18.10;21.80;;;;;;20714;6777;118386;-79
2022/04/17 10:07:10;;;;;;;1.63;1.53;;;17.90;22.30;;;;;;20751;6777;119511;-78
2022/04/17 10:09:45;;;;;;;1.83;1.60;;;17.90;22.50;;;;;;20549;6775;277618;-76
2022/04/17 10:12:21;;;;;;;1.40;1.40;;;18.20;21.40;;;;;;20734;6785;117738;-76
2022/04/17 10:15:01;;;;;;;1.42;1.40;;;18.30;21.70;;;;;;20507;6796;306498;-78
2022/04/17 10:17:35;;;;;;;1.67;1.57;;;18.60;20.90;;;;;;20622;6784;117917;-77
2022/04/17 10:20:12;;;;;;;1.90;1.73;;;18.60;21.40;;;;;;20461;6799;290132;-79
2022/04/17 10:22:57;;;;;;;1.70;1.60;;;18.80;20.80;;;;;;20558;6769;307044;-77
2022/04/17 10:25:26;;;;;;;2.07;1.97;;;19.00;20.60;;;;;;20818;6764;117590;-73
2022/04/17 10:28:01;;;;;;;2.65;2.45;;;19.00;20.60;;;;;;20644;6751;277210;-77
2022/04/17 10:30:38;;;;;;;1.97;1.87;;;19.10;21.30;;;;;;20704;6764;117201;-74
2022/04/17 10:33:33;;;;;;;2.40;2.20;;;19.00;21.10;;;;;;20525;6772;303261;-76
2022/04/17 10:36:22;;;;;;;1.90;1.80;;;19.00;21.30;;;;;;20784;6769;117050;-76
2022/04/17 10:39:28;;;;;;;1.63;1.57;;;18.80;21.50;;;;;;20677;6794;117673;-76
2022/04/17 10:42:03;;;;;;;1.80;1.70;;;18.80;21.50;;;;;;20583;6779;117408;-75
2022/04/17 10:44:42;;;;;;;1.50;1.40;;;18.60;21.10;;;;;;20784;6766;116909;-76
2022/04/17 10:47:21;;;;;;;1.70;1.57;;;18.40;20.80;;;;;;20775;6771;117798;-76
2022/04/17 10:49:56;;;;;;;1.70;1.60;;;18.20;20.80;;;;;;20764;6766;117074;-76
2022/04/17 10:52:32;;;;;;;1.57;1.53;;;18.10;20.90;;;;;;20784;6766;117177;-76
2022/04/17 10:55:08;;;;;;;1.70;1.60;;;18.10;21.30;;;;;;20773;6766;118045;-74
2022/04/17 10:57:43;;;;;;;2.05;1.95;;;18.10;21.50;;;;;;20572;6766;276767;-76
2022/04/17 11:00:28;;;;;;;1.43;1.43;;;18.40;20.50;;;;;;20758;6762;116972;-76
2022/04/17 11:03:11;;;;;;;1.87;1.77;;;18.40;20.60;;;;;;20755;6776;117566;-77
2022/04/17 11:08:48;;;;;;;1.83;1.73;;;18.30;21.30;;;;;;20820;6756;122754;-75
2022/04/17 11:11:22;;;;;;;2.93;1.80;;;18.10;21.40;;;;;;20654;6771;119808;-75
2022/04/17 11:14:09;;;;;;;2.20;1.60;;;18.00;21.40;;;;;;20763;6822;117048;-76
2022/04/17 11:16:57;;;;;;;1.60;1.55;;;18.00;21.50;;;;;;20564;6766;279286;-74
2022/04/17 11:19:33;;;;;;;1.60;1.50;;;18.20;21.80;;;;;;20775;6766;117166;-76
2022/04/17 11:22:08;;;;;;;1.97;1.87;;;18.20;21.40;;;;;;20362;6837;304540;-76
2022/04/17 11:25:02;;;;;;;1.80;1.70;;;18.40;20.80;;;;;;20777;6766;117515;-76
2022/04/17 11:27:31;;;;;;;1.73;1.63;;;18.40;21.20;;;;;;20588;6766;307235;-75
2022/04/17 11:30:14;;;;;;;1.75;1.65;;;18.60;21.30;;;;;;20551;6766;308707;-75
2022/04/17 11:32:50;;;;;;;1.80;1.70;;;18.90;20.40;;;;;;20779;6766;117548;-77
2022/04/17 11:35:25;;;;;;;2.07;1.70;;;18.80;20.30;;;;;;20852;6751;117503;-74
2022/04/17 11:38:04;;;;;;;2.07;1.90;;;18.50;20.40;;;;;;20557;6771;277130;-75
2022/04/17 11:40:41;;;;;;;4.50;4.20;;;18.50;20.50;;;;;;20666;6781;117136;-74
2022/04/17 11:43:16;;;;;;;2.77;2.57;;;18.40;21.10;;;;;;20785;6771;117190;-74
2022/04/17 11:45:50;;;;;;;1.73;1.57;;;18.30;20.90;;;;;;20750;6827;116946;-79
2022/04/17 11:48:26;;;;;;;2.00;1.80;;;18.10;20.90;;;;;;20726;6790;117639;-77
2022/04/17 11:51:01;;;;;;;1.93;1.83;;;17.90;20.90;;;;;;20457;6769;278171;-77
2022/04/17 11:53:37;;;;;;;1.43;1.40;;;18.00;21.10;;;;;;20781;6771;123717;-77
2022/04/17 11:56:14;;;;;;;1.90;1.80;;;18.30;20.90;;;;;;20565;6771;311443;-76
2022/04/17 11:58:49;;;;;;;1.43;1.30;;;18.30;20.90;;;;;;20785;6780;117420;-72
2022/04/17 12:01:24;;;;;;;1.87;1.77;;;18.30;20.80;;;;;;20624;6769;119892;-74
2022/04/17 12:04:00;;;;;;;1.80;1.70;;;18.10;20.80;;;;;;20512;6779;296192;-76
2022/04/17 12:06:36;;;;;;;1.60;1.50;;;18.20;20.40;;;;;;20517;6779;295642;-76
2022/04/17 12:09:11;;;;;;;2.00;1.80;;;18.40;20.20;;;;;;20520;6779;338563;-75
2022/04/17 12:11:49;;;;;;;1.60;1.50;;;18.60;19.50;;;;;;20606;6779;116454;-76
2022/04/17 12:14:26;;;;;;;1.63;1.53;;;18.50;20.00;;;;;;20805;6764;117618;-79
2022/04/17 12:17:01;;;;;;;2.08;1.60;;;18.20;20.20;;;;;;20571;6757;278458;-73
2022/04/17 12:19:41;;;;;;;1.47;1.37;;;18.20;20.20;;;;;;20836;6754;117161;-77
2022/04/17 12:22:14;;;;;;;1.92;1.77;;;18.20;20.20;;;;;;20537;6779;341262;-72
2022/04/17 12:24:50;;;;;;;1.60;1.50;;;18.20;20.20;;;;;;20813;6749;117470;-71
2022/04/17 12:27:26;;;;;;;1.50;1.40;;;18.10;20.30;;;;;;20782;6754;117185;-72
2022/04/17 12:30:02;;;;;;;2.63;1.50;;;18.00;20.70;;;;;;20803;6749;117078;-73
2022/04/17 12:32:44;;;;;;;1.50;1.40;;;17.90;20.80;;;;;;20801;6766;116973;-72
2022/04/17 12:35:25;;;;;;;1.50;1.40;;;17.80;20.70;;;;;;20590;6766;304176;-72
2022/04/17 12:38:10;;;;;;;1.63;1.53;;;17.90;19.50;;;;;;20850;6766;117061;-72
2022/04/17 12:40:43;;;;;;;2.53;1.50;;;17.90;20.50;;;;;;20710;6764;123041;-72
2022/04/17 12:43:19;;;;;;;1.50;1.40;;;17.80;20.70;;;;;;20572;6764;312035;-71
2022/04/17 12:45:55;;;;;;;1.60;1.50;;;17.90;20.20;;;;;;20613;6757;306015;-70
2022/04/17 12:48:30;;;;;;;6.22;5.82;;;18.20;20.30;;;;;;20533;6784;277708;-70
2022/04/17 12:51:05;;;;;;;1.10;1.10;;;18.50;19.60;;;;;;20407;6784;309243;-70
2022/04/17 12:53:42;;;;;;;1.20;1.20;;;18.70;19.30;;;;;;20578;6769;277934;-71
2022/04/17 12:56:20;;;;;;;2.07;1.27;;;18.80;19.80;;;;;;20746;6784;123186;-70
2022/04/17 12:58:58;;;;;;;1.30;1.30;;;18.70;19.20;;;;;;20766;6784;121843;-70
2022/04/17 13:01:33;;;;;;;1.00;1.00;;;18.40;19.40;;;;;;20603;6769;117883;-70
2022/04/17 13:04:09;;;;;;;1.50;1.40;;;18.20;19.40;;;;;;20729;6786;117100;-71
2022/04/17 13:06:44;;;;;;;1.63;1.30;;;17.90;19.40;;;;;;20780;6778;119982;-72
2022/04/17 13:09:22;;;;;;;1.23;1.23;;;17.70;19.80;;;;;;20730;6786;117736;-69
2022/04/17 13:11:56;;;;;;;1.93;1.40;;;17.70;20.50;;;;;;20418;6766;295444;-70
2022/04/17 13:14:32;;;;;;;1.40;1.40;;;17.60;20.40;;;;;;20539;6781;307187;-71
2022/04/17 13:17:08;;;;;;;1.42;1.33;;;18.00;20.30;;;;;;20564;6769;336085;-71
2022/04/17 13:19:43;;;;;;;1.43;1.33;;;18.30;21.00;;;;;;20507;6784;278187;-71
2022/04/17 13:22:19;;;;;;;1.40;1.40;;;18.60;19.90;;;;;;20626;6754;331677;-70
2022/04/17 13:24:56;;;;;;;1.27;1.23;;;18.80;19.80;;;;;;20727;6764;122061;-71
2022/04/17 13:27:35;;;;;;;1.30;1.20;;;18.60;20.00;;;;;;20574;6764;335588;-72
2022/04/17 13:30:09;;;;;;;1.37;1.27;;;18.60;19.00;;;;;;20545;6766;312462;-71
2022/04/17 13:32:44;;;;;;;1.77;1.47;;;18.70;18.80;;;;;;20781;6764;127286;-72
2022/04/17 13:35:20;;;;;;;1.40;1.40;;;18.50;19.10;;;;;;20588;6764;311389;-71
2022/04/17 13:38:12;;;;;;;1.33;1.23;;;18.50;20.20;;;;;;20586;6764;306728;-71
2022/04/17 13:40:48;;;;;;;1.30;1.30;;;18.60;18.50;;;;;;20515;6749;306770;-70
2022/04/17 13:43:24;;;;;;;1.17;1.17;;;18.80;20.30;;;;;;20773;6772;117288;-71
2022/04/17 13:45:59;;;;;;;1.47;1.37;;;18.60;20.10;;;;;;20785;6769;117119;-72